Time;durP1;ratioP1;P1;durP2;ratioP2;P2;SDS_P1;SDS_P2;PMS_P1;PMS_P2;Temp;Humidity;BMP_temperature;BMP_pressure;BME280_temperature;BME280_humidity;BME280_pressure;Samples;Min_cycle;Max_cycle;Signal;HPM_P1;HPM_P2
2023/05/23 00:01:37;;;;;;;;;;;;;;;23.43;50.70;101724.38;5038988;28;19917;-71
2023/05/23 00:04:02;;;;;;;;;;;;;;;23.42;50.76;101731.69;5035031;28;19924;-72
2023/05/23 00:06:28;;;;;;;;;;;;;;;23.42;50.83;101731.69;5057636;28;19920;-71
2023/05/23 00:08:53;;;;;;;;;;;;;;;23.41;50.57;101724.56;5038980;28;19944;-71
2023/05/23 00:11:19;;;;;;;;;;;;;;;23.41;50.53;101731.88;5043335;28;19940;-72
2023/05/23 00:13:44;;;;;;;;;;;;;;;23.40;50.69;101732.88;5039134;28;19956;-72
2023/05/23 00:16:09;;;;;;;;;;;;;;;23.39;50.69;101737.47;5031327;28;19925;-72
2023/05/23 00:18:39;;;;;;;;;;;;;;;23.40;50.42;101746.44;5029911;28;19918;-72
2023/05/23 00:21:04;;;;;;;;;;;;;;;23.38;50.53;101754.78;5033395;28;20020;-71
2023/05/23 00:23:29;;;;;;;;;;;;;;;23.37;50.83;101753.09;5036052;28;19944;-71
2023/05/23 00:25:54;;;;;;;;;;;;;;;23.37;50.39;101753.09;5030065;28;19917;-71
2023/05/23 00:28:20;;;;;;;;;;;;;;;23.37;50.55;101753.09;5032325;28;19924;-72
2023/05/23 00:30:45;;;;;;;;;;;;;;;23.36;50.47;101759.56;5042869;28;19917;-71
2023/05/23 00:33:13;;;;;;;;;;;;;;;23.36;50.55;101766.81;5034918;28;19914;-71
2023/05/23 00:35:38;;;;;;;;;;;;;;;23.35;50.62;101759.72;5038425;28;19914;-72
2023/05/23 00:38:06;;;;;;;;;;;;;;;23.34;50.42;101766.16;5042021;28;19976;-72
2023/05/23 00:40:31;;;;;;;;;;;;;;;23.34;50.35;101774.31;5035473;28;19917;-72
2023/05/23 00:42:56;;;;;;;;;;;;;;;23.34;50.61;101774.31;5031503;28;19953;-72
2023/05/23 00:45:22;;;;;;;;;;;;;;;23.32;50.32;101762.78;5031242;28;20328;-72
2023/05/23 00:47:47;;;;;;;;;;;;;;;23.32;50.34;101766.34;5033334;28;19921;-72
2023/05/23 00:50:15;;;;;;;;;;;;;;;23.31;50.65;101772.78;5043327;28;19913;-72
2023/05/23 00:52:41;;;;;;;;;;;;;;;23.31;50.68;101772.78;5031505;28;19996;-72
2023/05/23 00:55:08;;;;;;;;;;;;;;;23.31;50.65;101780.06;5031631;28;19921;-72
2023/05/23 00:57:33;;;;;;;;;;;;;;;23.31;50.50;101774.66;5034443;28;19913;-72
2023/05/23 01:00:02;;;;;;;;;;;;;;;23.30;50.57;101770.25;5031407;28;19920;-72
2023/05/23 01:02:27;;;;;;;;;;;;;;;23.28;50.45;101765.00;5039145;28;19917;-72
2023/05/23 01:04:53;;;;;;;;;;;;;;;23.28;50.51;101781.28;5029572;28;19956;-72
2023/05/23 01:07:18;;;;;;;;;;;;;;;23.28;50.38;101769.56;5040421;28;19961;-72
2023/05/23 01:09:43;;;;;;;;;;;;;;;23.26;50.29;101766.19;5033983;28;19953;-72
2023/05/23 01:12:24;;;;;;;;;;;;;;;23.26;50.54;101758.06;5030268;28;19914;-71
2023/05/23 01:14:55;;;;;;;;;;;;;;;23.25;50.45;101759.09;5044150;28;19913;-72
2023/05/23 01:17:23;;;;;;;;;;;;;;;23.25;50.57;101759.09;5051559;28;19936;-72
2023/05/23 01:19:51;;;;;;;;;;;;;;;23.24;50.66;101760.97;5030270;28;19923;-71
2023/05/23 01:22:36;;;;;;;;;;;;;;;23.24;50.74;101774.53;5051810;28;19956;-72
2023/05/23 01:25:27;;;;;;;;;;;;;;;23.23;50.39;101770.09;5024015;28;19985;-72
2023/05/23 01:27:54;;;;;;;;;;;;;;;23.23;50.63;101769.25;5036096;28;19924;-72
2023/05/23 01:30:20;;;;;;;;;;;;;;;23.23;50.60;101777.41;5035964;28;19982;-72
2023/05/23 01:32:46;;;;;;;;;;;;;;;23.22;50.45;101779.28;5057995;28;20359;-72
2023/05/23 01:35:11;;;;;;;;;;;;;;;23.21;50.51;101777.59;5039077;28;20019;-72
2023/05/23 01:37:36;;;;;;;;;;;;;;;23.19;50.45;101780.50;5033420;28;20537;-72
2023/05/23 01:40:02;;;;;;;;;;;;;;;23.19;50.58;101768.75;5049164;28;19921;-72
2023/05/23 01:42:27;;;;;;;;;;;;;;;23.19;50.39;101785.03;5046033;28;19924;-71
2023/05/23 01:44:52;;;;;;;;;;;;;;;23.18;50.46;101784.19;5036786;28;19917;-72
2023/05/23 01:47:17;;;;;;;;;;;;;;;23.18;50.23;101788.78;5039670;28;19996;-72
2023/05/23 01:49:43;;;;;;;;;;;;;;;23.17;50.54;101784.38;5032312;28;19913;-72
2023/05/23 01:52:08;;;;;;;;;;;;;;;23.17;50.54;101781.69;5034459;28;19948;-72
2023/05/23 01:54:34;;;;;;;;;;;;;;;23.15;50.27;101787.28;5031479;28;19924;-72
2023/05/23 01:56:59;;;;;;;;;;;;;;;23.16;50.42;101788.13;5037756;28;19912;-72
2023/05/23 01:59:24;;;;;;;;;;;;;;;23.15;50.37;101789.13;5055467;28;19952;-72
2023/05/23 02:01:49;;;;;;;;;;;;;;;23.15;50.36;101805.41;5040760;28;20316;-71
2023/05/23 02:04:15;;;;;;;;;;;;;;;23.15;50.42;101810.81;5034620;28;20018;-72
2023/05/23 02:06:41;;;;;;;;;;;;;;;23.13;50.22;101800.16;5049515;28;20294;-72
2023/05/23 02:09:06;;;;;;;;;;;;;;;23.12;50.37;101809.34;5021197;28;19999;-72
2023/05/23 02:11:32;;;;;;;;;;;;;;;23.11;50.38;101806.81;5031618;28;19939;-71
2023/05/23 02:13:57;;;;;;;;;;;;;;;23.11;50.18;101812.22;5049548;28;20070;-72
2023/05/23 02:16:24;;;;;;;;;;;;;;;23.11;50.39;101810.34;5049196;28;20393;-72
2023/05/23 02:18:51;;;;;;;;;;;;;;;23.10;50.24;101819.50;5038603;28;20346;-71
2023/05/23 02:21:16;;;;;;;;;;;;;;;23.10;50.14;101822.19;5049941;28;19916;-71
2023/05/23 02:23:41;;;;;;;;;;;;;;;23.09;50.08;101823.22;5035365;28;20285;-71
2023/05/23 02:26:07;;;;;;;;;;;;;;;23.09;50.19;101825.09;5025853;28;20488;-72
2023/05/23 02:28:32;;;;;;;;;;;;;;;23.08;50.02;101826.97;5043229;28;19917;-72
2023/05/23 02:30:57;;;;;;;;;;;;;;;23.08;50.04;101823.41;5042931;28;19992;-72
2023/05/23 02:33:22;;;;;;;;;;;;;;;23.07;50.02;101816.31;5032463;28;19919;-72
2023/05/23 02:35:50;;;;;;;;;;;;;;;23.07;50.07;101829.88;5050269;28;19912;-71
2023/05/23 02:38:15;;;;;;;;;;;;;;;23.06;50.11;101826.28;5049009;28;20001;-71
2023/05/23 02:40:40;;;;;;;;;;;;;;;23.06;49.98;101839.00;5049270;28;19913;-71
2023/05/23 02:43:05;;;;;;;;;;;;;;;23.05;50.00;101842.75;5050914;28;19917;-72
2023/05/23 02:45:31;;;;;;;;;;;;;;;23.04;50.21;101841.91;5033594;28;19917;-71
2023/05/23 02:47:56;;;;;;;;;;;;;;;23.05;50.15;101842.75;5021553;28;20401;-72
2023/05/23 02:50:21;;;;;;;;;;;;;;;23.04;50.10;101841.91;5051831;28;20007;-71
2023/05/23 02:52:46;;;;;;;;;;;;;;;23.03;50.17;101842.09;5025558;28;20293;-72
2023/05/23 02:55:11;;;;;;;;;;;;;;;23.03;50.19;101845.66;5049836;28;19920;-72
2023/05/23 02:57:37;;;;;;;;;;;;;;;23.02;50.18;101843.94;5039597;28;20519;-72
2023/05/23 03:00:02;;;;;;;;;;;;;;;23.02;50.25;101846.63;5048303;28;19946;-71
2023/05/23 03:02:27;;;;;;;;;;;;;;;23.01;50.18;101853.09;5053260;28;19988;-72
2023/05/23 03:04:54;;;;;;;;;;;;;;;23.00;50.02;101851.41;5033013;28;19913;-71
2023/05/23 03:07:20;;;;;;;;;;;;;;;23.01;50.13;101850.38;5049110;28;19913;-71
2023/05/23 03:09:45;;;;;;;;;;;;;;;23.00;50.03;101847.84;5050301;28;20018;-71
2023/05/23 03:12:10;;;;;;;;;;;;;;;22.99;49.98;101848.88;5031609;28;19919;-71
2023/05/23 03:14:36;;;;;;;;;;;;;;;22.99;50.14;101854.31;5048036;28;20479;-71
2023/05/23 03:17:02;;;;;;;;;;;;;;;22.98;49.90;101853.47;5052731;28;19916;-71
2023/05/23 03:19:28;;;;;;;;;;;;;;;22.98;50.01;101860.72;5056067;28;19956;-72
2023/05/23 03:21:53;;;;;;;;;;;;;;;22.97;50.13;101862.59;5046730;28;19928;-72
2023/05/23 03:24:18;;;;;;;;;;;;;;;22.97;49.86;101859.88;5060099;28;20547;-72
2023/05/23 03:26:44;;;;;;;;;;;;;;;22.97;49.84;101859.88;5054947;28;19917;-72
2023/05/23 03:29:09;;;;;;;;;;;;;;;22.95;49.87;101862.78;5042246;28;19913;-72
2023/05/23 03:31:35;;;;;;;;;;;;;;;22.94;49.99;101863.81;5047935;28;19936;-72
2023/05/23 03:34:00;;;;;;;;;;;;;;;22.95;50.11;101865.47;5052560;28;19913;-72
2023/05/23 03:36:27;;;;;;;;;;;;;;;22.93;49.86;101859.38;5035840;28;19968;-72
2023/05/23 03:38:52;;;;;;;;;;;;;;;22.93;50.00;101859.38;5050720;28;19913;-72
2023/05/23 03:41:17;;;;;;;;;;;;;;;22.93;49.84;101867.50;5035716;28;19968;-72
2023/05/23 03:43:42;;;;;;;;;;;;;;;22.92;49.74;101854.97;5034430;28;20416;-72
2023/05/23 03:46:08;;;;;;;;;;;;;;;22.92;49.64;101851.41;5055029;28;19917;-71
2023/05/23 03:48:33;;;;;;;;;;;;;;;22.91;49.89;101858.72;5051551;28;19917;-71
2023/05/23 03:50:58;;;;;;;;;;;;;;;22.92;49.79;101867.69;5061904;28;19928;-72
2023/05/23 03:53:23;;;;;;;;;;;;;;;22.90;49.90;101857.03;5056328;28;19988;-72
2023/05/23 03:55:48;;;;;;;;;;;;;;;22.90;49.57;101862.44;5052530;28;19999;-72
2023/05/23 03:58:13;;;;;;;;;;;;;;;22.90;49.68;101856.19;5058621;28;20378;-72
2023/05/23 04:00:39;;;;;;;;;;;;;;;22.89;49.70;101862.56;5050045;28;19913;-72
2023/05/23 04:03:04;;;;;;;;;;;;;;;22.89;49.90;101873.41;5054702;28;19917;-72
2023/05/23 04:05:30;;;;;;;;;;;;;;;22.87;49.90;101868.19;5052357;28;19913;-72
2023/05/23 04:07:55;;;;;;;;;;;;;;;22.87;49.81;101873.59;5052466;28;19917;-72
2023/05/23 04:10:21;;;;;;;;;;;;;;;22.87;49.79;101878.19;5047419;28;19917;-73
2023/05/23 04:12:46;;;;;;;;;;;;;;;22.87;49.70;101883.59;5038209;28;19917;-71
2023/05/23 04:15:11;;;;;;;;;;;;;;;22.87;49.69;101886.31;5051011;28;19927;-72
2023/05/23 04:17:38;;;;;;;;;;;;;;;22.86;49.45;101890.06;5043236;28;20324;-72
2023/05/23 04:20:08;;;;;;;;;;;;;;;22.85;49.56;101883.78;5056939;28;19932;-72
2023/05/23 04:22:33;;;;;;;;;;;;;;;22.84;49.62;101876.66;5034536;28;19984;-73
2023/05/23 04:24:58;;;;;;;;;;;;;;;22.84;49.75;101890.19;5060396;28;19912;-72
2023/05/23 04:27:24;;;;;;;;;;;;;;;22.84;49.62;101894.78;5034313;28;19916;-72
2023/05/23 04:29:51;;;;;;;;;;;;;;;22.83;49.51;101903.94;5041368;28;19917;-72
2023/05/23 04:32:18;;;;;;;;;;;;;;;22.83;49.41;101904.78;5038106;28;19947;-72
2023/05/23 04:34:43;;;;;;;;;;;;;;;22.82;49.54;101903.09;5046954;28;19952;-72
2023/05/23 04:37:13;;;;;;;;;;;;;;;22.81;49.69;101906.84;5033720;28;20289;-72
2023/05/23 04:39:38;;;;;;;;;;;;;;;22.82;49.35;101915.81;5050981;28;20030;-72
2023/05/23 04:42:06;;;;;;;;;;;;;;;22.81;49.38;101917.69;5039790;28;19921;-72
2023/05/23 04:44:32;;;;;;;;;;;;;;;22.79;49.22;101914.28;5050674;28;19913;-71
2023/05/23 04:46:57;;;;;;;;;;;;;;;22.80;49.58;101925.97;5056704;28;19913;-71
2023/05/23 04:49:22;;;;;;;;;;;;;;;22.79;49.16;101927.84;5032831;28;19935;-71
2023/05/23 04:51:48;;;;;;;;;;;;;;;22.79;49.25;101929.69;5058632;28;19913;-71
2023/05/23 04:54:13;;;;;;;;;;;;;;;22.79;49.52;101933.25;5029374;28;19916;-72
2023/05/23 04:56:38;;;;;;;;;;;;;;;22.77;49.31;101935.31;5050380;28;19924;-71
2023/05/23 04:59:04;;;;;;;;;;;;;;;22.77;49.56;101948.88;5057256;28;20461;-71
2023/05/23 05:01:30;;;;;;;;;;;;;;;22.77;49.42;101951.56;5033073;28;19917;-72
2023/05/23 05:03:55;;;;;;;;;;;;;;;22.77;49.22;101953.41;5032554;28;19970;-72
2023/05/23 05:06:21;;;;;;;;;;;;;;;22.76;49.26;101951.72;5048903;28;20370;-71
2023/05/23 05:08:46;;;;;;;;;;;;;;;22.74;49.23;101954.63;5039026;28;19919;-72
2023/05/23 05:11:11;;;;;;;;;;;;;;;22.75;49.17;101960.88;5047394;28;19972;-73
2023/05/23 05:13:36;;;;;;;;;;;;;;;22.74;49.25;101970.88;5036062;28;19913;-72
2023/05/23 05:16:02;;;;;;;;;;;;;;;22.73;49.22;101963.78;5051332;28;19921;-72
2023/05/23 05:18:28;;;;;;;;;;;;;;;22.73;49.22;101969.19;5038916;28;19921;-71
2023/05/23 05:20:53;;;;;;;;;;;;;;;22.73;49.03;101971.06;5044516;28;19944;-71
2023/05/23 05:23:18;;;;;;;;;;;;;;;22.73;49.26;101981.91;5053326;28;19921;-71
2023/05/23 05:25:43;;;;;;;;;;;;;;;22.72;48.97;101981.03;5034959;28;19924;-72
2023/05/23 05:28:09;;;;;;;;;;;;;;;22.72;48.93;101978.31;5049661;28;19917;-72
2023/05/23 05:30:34;;;;;;;;;;;;;;;22.71;49.27;101982.06;5046424;28;19920;-72
2023/05/23 05:33:03;;;;;;;;;;;;;;;22.70;49.11;101981.22;5052069;28;20377;-72
2023/05/23 05:35:31;;;;;;;;;;;;;;;22.70;49.25;101985.78;5045489;28;19912;-72
2023/05/23 05:37:57;;;;;;;;;;;;;;;22.69;48.86;101986.81;5031998;28;19917;-72
2023/05/23 05:40:22;;;;;;;;;;;;;;;22.69;48.89;101989.53;5050827;28;19932;-71
2023/05/23 05:42:47;;;;;;;;;;;;;;;22.68;49.20;101998.66;5033725;28;19921;-71
2023/05/23 05:45:12;;;;;;;;;;;;;;;22.68;49.07;102004.06;5050698;28;20325;-71
2023/05/23 05:47:37;;;;;;;;;;;;;;;22.67;49.08;102008.66;5057115;28;19920;-72
2023/05/23 05:50:04;;;;;;;;;;;;;;;22.66;49.11;102019.66;5044030;28;19917;-71
2023/05/23 05:52:29;;;;;;;;;;;;;;;22.66;48.78;102022.38;5057591;28;19936;-71
2023/05/23 05:54:56;;;;;;;;;;;;;;;22.65;48.86;102026.97;5050257;28;20394;-71
2023/05/23 05:57:21;;;;;;;;;;;;;;;22.64;48.71;102025.25;5049500;28;19917;-71
2023/05/23 05:59:46;;;;;;;;;;;;;;;22.64;48.92;102018.97;5051854;28;19913;-72
2023/05/23 06:02:12;;;;;;;;;;;;;;;22.65;48.80;102031.53;5051691;28;20352;-72
2023/05/23 06:04:37;;;;;;;;;;;;;;;22.62;48.84;102021.84;5049184;28;20381;-71
2023/05/23 06:07:02;;;;;;;;;;;;;;;22.64;48.89;102032.53;5048484;28;19920;-72
2023/05/23 06:09:27;;;;;;;;;;;;;;;22.62;48.72;102031.84;5052873;28;19913;-71
2023/05/23 06:11:52;;;;;;;;;;;;;;;22.61;48.68;102033.72;5046215;28;19979;-72
2023/05/23 06:14:17;;;;;;;;;;;;;;;22.61;48.86;102044.56;5055843;28;19913;-71
2023/05/23 06:16:43;;;;;;;;;;;;;;;22.60;48.70;102036.56;5050403;28;19928;-71
2023/05/23 06:19:08;;;;;;;;;;;;;;;22.60;48.55;102039.28;5055301;28;19924;-72
2023/05/23 06:21:33;;;;;;;;;;;;;;;22.58;48.92;102049.47;5035548;28;19947;-71
2023/05/23 06:23:58;;;;;;;;;;;;;;;22.57;48.93;102043.19;5049473;28;20282;-72
2023/05/23 06:26:24;;;;;;;;;;;;;;;22.56;48.68;102057.78;5037591;28;19925;-72
2023/05/23 06:28:49;;;;;;;;;;;;;;;22.56;48.84;102051.50;5049176;28;19913;-72
2023/05/23 06:31:14;;;;;;;;;;;;;;;22.56;48.56;102057.78;5049886;28;19952;-72
2023/05/23 06:33:39;;;;;;;;;;;;;;;22.56;48.85;102062.34;5049670;28;19917;-72
2023/05/23 06:36:05;;;;;;;;;;;;;;;22.55;48.85;102066.03;5052351;28;19920;-71
2023/05/23 06:38:32;;;;;;;;;;;;;;;22.54;48.65;102064.34;5050143;28;20007;-71
2023/05/23 06:40:57;;;;;;;;;;;;;;;22.53;48.86;102066.22;5050803;28;19932;-71
2023/05/23 06:43:22;;;;;;;;;;;;;;;22.53;48.77;102070.81;5034074;28;19917;-71
2023/05/23 06:45:47;;;;;;;;;;;;;;;22.53;48.66;102073.50;5053010;28;19919;-71
2023/05/23 06:48:13;;;;;;;;;;;;;;;22.52;48.62;102071.81;5038318;28;19944;-71
2023/05/23 06:50:39;;;;;;;;;;;;;;;22.52;48.40;102074.53;5047259;28;19913;-71
2023/05/23 06:53:05;;;;;;;;;;;;;;;22.51;48.63;102084.50;5055493;28;19924;-72
2023/05/23 06:55:32;;;;;;;;;;;;;;;22.51;48.65;102072.81;5052993;28;20330;-71
2023/05/23 06:57:57;;;;;;;;;;;;;;;22.50;48.74;102093.66;5053823;28;19945;-71
2023/05/23 07:00:23;;;;;;;;;;;;;;;22.50;48.48;102096.34;5036093;28;19936;-71
2023/05/23 07:02:48;;;;;;;;;;;;;;;22.50;48.66;102095.50;5055225;28;19966;-71
2023/05/23 07:05:14;;;;;;;;;;;;;;;22.50;48.32;102095.50;5051093;28;19975;-71
2023/05/23 07:07:39;;;;;;;;;;;;;;;22.51;48.53;102097.19;5058199;28;19917;-71
2023/05/23 07:10:05;;;;;;;;;;;;;;;22.52;48.25;102085.38;5056121;28;19928;-71
2023/05/23 07:12:30;;;;;;;;;;;;;;;22.53;48.40;102092.47;5047427;28;19913;-72
2023/05/23 07:14:55;;;;;;;;;;;;;;;22.53;48.47;102084.34;5047342;28;20413;-72
2023/05/23 07:17:21;;;;;;;;;;;;;;;22.54;48.54;102089.59;5052556;28;19917;-72
2023/05/23 07:19:46;;;;;;;;;;;;;;;22.55;48.41;102098.56;5058889;28;19918;-72
2023/05/23 07:22:11;;;;;;;;;;;;;;;22.55;48.32;102101.28;5037281;28;19920;-72
2023/05/23 07:24:37;;;;;;;;;;;;;;;22.55;48.54;102101.28;5042801;28;19924;-72
2023/05/23 07:27:02;;;;;;;;;;;;;;;22.55;48.43;102098.56;5052675;28;19922;-72
2023/05/23 07:29:27;;;;;;;;;;;;;;;22.56;48.41;102100.28;5040642;28;19920;-72
2023/05/23 07:31:53;;;;;;;;;;;;;;;22.55;48.32;102106.72;5054444;28;19913;-72
2023/05/23 07:34:18;;;;;;;;;;;;;;;22.54;48.17;102111.28;5053349;28;19924;-72
2023/05/23 07:36:43;;;;;;;;;;;;;;;22.54;48.26;102110.44;5039806;28;19924;-72
2023/05/23 07:39:09;;;;;;;;;;;;;;;22.54;48.30;102119.41;5050943;28;19965;-72
2023/05/23 07:41:34;;;;;;;;;;;;;;;22.54;48.33;102119.41;5048640;28;19948;-72
2023/05/23 07:44:00;;;;;;;;;;;;;;;22.54;48.43;102126.69;5054705;28;19921;-72
2023/05/23 07:46:25;;;;;;;;;;;;;;;22.54;48.21;102132.97;5054402;28;19923;-72
2023/05/23 07:48:50;;;;;;;;;;;;;;;22.53;48.31;102130.44;5039380;28;19983;-72
2023/05/23 07:51:20;;;;;;;;;;;;;;;22.53;48.03;102127.72;5024651;28;19917;-72
2023/05/23 07:53:45;;;;;;;;;;;;;;;22.53;48.12;102128.56;5056762;28;19921;-72
2023/05/23 07:56:10;;;;;;;;;;;;;;;22.52;48.15;102137.72;5051712;28;19913;-72
2023/05/23 07:58:35;;;;;;;;;;;;;;;22.53;48.31;102133.13;5052932;28;19920;-72
2023/05/23 08:01:02;;;;;;;;;;;;;;;22.53;48.18;102130.44;5050542;28;19936;-72
2023/05/23 08:03:27;;;;;;;;;;;;;;;22.53;48.35;102133.13;5054421;28;19917;-72
2023/05/23 08:05:52;;;;;;;;;;;;;;;22.52;48.34;102132.28;5043652;28;19996;-72
2023/05/23 08:08:17;;;;;;;;;;;;;;;22.53;48.24;102133.13;5059326;28;19913;-72
2023/05/23 08:10:44;;;;;;;;;;;;;;;22.53;48.03;102131.28;5038485;28;19920;-72
2023/05/23 08:13:09;;;;;;;;;;;;;;;22.53;48.36;102136.69;5040701;28;19963;-72
2023/05/23 08:15:35;;;;;;;;;;;;;;;22.53;47.88;102141.28;5056794;28;19929;-72
2023/05/23 08:18:00;;;;;;;;;;;;;;;22.53;48.11;102141.28;5053138;28;19916;-71
2023/05/23 08:20:29;;;;;;;;;;;;;;;22.53;47.90;102135.84;5034372;28;20328;-72
2023/05/23 08:22:58;;;;;;;;;;;;;;;22.52;48.00;102143.13;5022477;28;19947;-72
2023/05/23 08:25:23;;;;;;;;;;;;;;;22.53;47.84;102141.28;5053691;28;19957;-72
2023/05/23 08:27:49;;;;;;;;;;;;;;;22.53;48.09;102144.81;5051924;28;19913;-72
2023/05/23 08:30:14;;;;;;;;;;;;;;;22.53;47.78;102150.25;5054447;28;19924;-72
2023/05/23 08:32:40;;;;;;;;;;;;;;;22.54;47.71;102149.22;5024164;28;20523;-72
2023/05/23 08:35:05;;;;;;;;;;;;;;;22.53;48.11;102158.38;5054581;28;19992;-72
2023/05/23 08:37:30;;;;;;;;;;;;;;;22.53;47.88;102162.94;5057468;28;19914;-72
2023/05/23 08:39:56;;;;;;;;;;;;;;;22.52;48.05;102164.81;5052839;28;19913;-72
2023/05/23 08:42:21;;;;;;;;;;;;;;;22.53;48.15;102168.38;5025890;28;19912;-72
2023/05/23 08:44:46;;;;;;;;;;;;;;;22.52;48.06;102164.81;5051700;28;19916;-72
2023/05/23 08:47:11;;;;;;;;;;;;;;;22.51;47.80;102165.81;5050910;28;19924;-72
2023/05/23 08:49:36;;;;;;;;;;;;;;;22.51;47.84;102167.66;5055388;28;19920;-72
2023/05/23 08:52:05;;;;;;;;;;;;;;;22.51;47.85;102175.81;5053998;28;19984;-72
2023/05/23 08:54:31;;;;;;;;;;;;;;;22.51;47.92;102175.81;5036791;28;19917;-72
2023/05/23 08:56:57;;;;;;;;;;;;;;;22.51;48.00;102176.66;5038237;28;19917;-72
2023/05/23 08:59:22;;;;;;;;;;;;;;;22.52;47.69;102180.25;5034915;28;20024;-72
2023/05/23 09:01:47;;;;;;;;;;;;;;;22.51;47.84;102182.06;5048277;28;19920;-72
2023/05/23 09:04:12;;;;;;;;;;;;;;;22.52;47.94;102188.38;5057258;28;20429;-72
2023/05/23 09:06:38;;;;;;;;;;;;;;;22.53;47.77;102190.91;5044114;28;19913;-72
2023/05/23 09:09:03;;;;;;;;;;;;;;;22.53;47.84;102187.34;5045431;28;19939;-72
2023/05/23 09:11:28;;;;;;;;;;;;;;;22.53;47.84;102196.31;5035105;28;19913;-72
2023/05/23 09:13:54;;;;;;;;;;;;;;;22.53;47.68;102188.19;5032531;28;19929;-72
2023/05/23 09:16:20;;;;;;;;;;;;;;;22.53;47.58;102198.19;5036955;28;19986;-72
2023/05/23 09:18:45;;;;;;;;;;;;;;;22.54;47.61;102202.59;5033704;28;19996;-72
2023/05/23 09:21:11;;;;;;;;;;;;;;;22.54;47.70;102199.88;5049335;28;19920;-72
2023/05/23 09:23:38;;;;;;;;;;;;;;;22.54;47.70;102189.03;5045239;28;19951;-71
2023/05/23 09:26:07;;;;;;;;;;;;;;;22.53;47.43;102201.75;5052715;28;19917;-72
2023/05/23 09:28:33;;;;;;;;;;;;;;;22.54;47.64;102197.16;5046297;28;19913;-72
2023/05/23 09:30:59;;;;;;;;;;;;;;;22.54;47.57;102197.16;5038410;28;19920;-71
2023/05/23 09:33:28;;;;;;;;;;;;;;;22.54;47.55;102189.88;5033765;28;19916;-72
2023/05/23 09:35:53;;;;;;;;;;;;;;;22.55;47.40;102190.72;5056829;28;19940;-71
2023/05/23 09:38:18;;;;;;;;;;;;;;;22.55;47.47;102194.28;5037363;28;19920;-72
2023/05/23 09:40:43;;;;;;;;;;;;;;;22.56;47.46;102208.72;5049908;28;19945;-72
2023/05/23 09:43:09;;;;;;;;;;;;;;;22.55;47.58;102201.56;5034900;28;19923;-72
2023/05/23 09:45:34;;;;;;;;;;;;;;;22.56;47.54;102208.72;5050582;28;20019;-72
2023/05/23 09:48:00;;;;;;;;;;;;;;;22.17;47.41;102149.53;5036174;28;19963;-72
2023/05/23 09:50:29;;;;;;;;;;;;;;;22.56;47.22;102214.13;5035629;28;19913;-72
2023/05/23 09:52:54;;;;;;;;;;;;;;;22.55;47.66;102207.84;5051910;28;19931;-72
2023/05/23 09:55:20;;;;;;;;;;;;;;;22.56;47.60;102209.56;5049757;28;20011;-72
2023/05/23 09:57:45;;;;;;;;;;;;;;;22.56;47.65;102217.69;5052401;28;19943;-72
2023/05/23 10:00:12;;;;;;;;;;;;;;;22.58;47.26;102209.38;5034234;28;20354;-72
2023/05/23 10:03:13;;;;;;;;;;;;;;;22.58;47.20;102207.53;5037952;28;19921;-72
2023/05/23 10:05:40;;;;;;;;;;;;;;;22.59;47.57;102205.66;5022114;28;19965;-72
2023/05/23 10:08:10;;;;;;;;;;;;;;;22.60;47.39;102207.34;4998642;28;19913;-72
2023/05/23 10:10:43;;;;;;;;;;;;;;;22.61;47.47;102200.94;5026485;28;20366;-71
2023/05/23 10:13:08;;;;;;;;;;;;;;;22.61;47.24;102209.94;5017572;28;19914;-72
2023/05/23 10:15:38;;;;;;;;;;;;;;;22.62;47.24;102206.19;5004713;28;19967;-72
2023/05/23 10:18:06;;;;;;;;;;;;;;;22.61;47.47;102204.50;5018367;28;19914;-72
2023/05/23 10:20:32;;;;;;;;;;;;;;;22.62;47.51;102211.63;5022068;28;19937;-72
2023/05/23 10:23:00;;;;;;;;;;;;;;;22.62;47.37;102213.47;5020576;28;20539;-72
2023/05/23 10:25:25;;;;;;;;;;;;;;;22.62;47.51;102211.63;5026949;28;19917;-72
2023/05/23 10:27:53;;;;;;;;;;;;;;;22.62;47.41;102214.31;5015914;28;19929;-72
2023/05/23 10:30:18;;;;;;;;;;;;;;;22.63;47.53;102207.88;5025698;28;19914;-72
2023/05/23 10:32:43;;;;;;;;;;;;;;;22.64;47.28;102211.44;5024993;28;19979;-72
2023/05/23 10:35:08;;;;;;;;;;;;;;;22.66;47.27;102217.56;4996100;28;19914;-71
2023/05/23 10:37:38;;;;;;;;;;;;;;;22.67;47.41;102217.41;5029027;28;19933;-72
2023/05/23 10:40:09;;;;;;;;;;;;;;;22.67;47.32;102213.84;5038639;28;19948;-72
2023/05/23 10:42:39;;;;;;;;;;;;;;;22.69;47.59;102212.69;5035419;28;19925;-72
2023/05/23 10:45:15;;;;;;;;;;;;;;;22.71;47.75;102215.22;5031961;28;20513;-72
2023/05/23 10:47:40;;;;;;;;;;;;;;;22.70;47.62;102219.78;5051122;28;19913;-72
2023/05/23 10:50:06;;;;;;;;;;;;;;;22.71;47.74;102216.06;5051046;28;19919;-72
2023/05/23 10:52:37;;;;;;;;;;;;;;;22.72;47.77;102230.47;5051998;28;19984;-71
2023/05/23 10:55:03;;;;;;;;;;;;;;;22.73;47.87;102229.47;5048673;28;19921;-71
2023/05/23 10:57:28;;;;;;;;;;;;;;;22.75;47.96;102238.28;5041444;28;19917;-72
2023/05/23 10:59:54;;;;;;;;;;;;;;;22.77;47.88;102214.59;5054805;28;20377;-72
2023/05/23 11:02:26;;;;;;;;;;;;;;;22.78;47.91;102223.56;5033988;28;19935;-72
2023/05/23 11:05:10;;;;;;;;;;;;;;;22.79;47.98;102233.38;5054491;28;20013;-71
2023/05/23 11:07:35;;;;;;;;;;;;;;;22.81;47.82;102225.94;5047357;28;19914;-71
2023/05/23 11:10:04;;;;;;;;;;;;;;;22.81;47.94;102213.25;5033844;28;19943;-71
2023/05/23 11:12:42;;;;;;;;;;;;;;;22.84;47.76;102223.75;5049126;28;19913;-72
2023/05/23 11:15:16;;;;;;;;;;;;;;;22.86;47.97;102229.03;5050061;28;19956;-72
2023/05/23 11:17:49;;;;;;;;;;;;;;;22.87;47.99;102236.97;5049817;28;19913;-72
2023/05/23 11:20:15;;;;;;;;;;;;;;;22.87;47.86;102239.69;5051545;28;20007;-72
2023/05/23 11:22:47;;;;;;;;;;;;;;;22.88;47.89;102241.38;5047563;28;19925;-71
2023/05/23 11:25:12;;;;;;;;;;;;;;;22.88;47.90;102230.53;5045282;28;19947;-72
2023/05/23 11:27:38;;;;;;;;;;;;;;;22.89;48.10;102234.09;5053349;28;19917;-73
2023/05/23 11:30:04;;;;;;;;;;;;;;;22.91;47.88;102234.84;5044231;28;19913;-72
2023/05/23 11:32:30;;;;;;;;;;;;;;;22.92;48.12;102239.25;5042354;28;19951;-72
2023/05/23 11:34:55;;;;;;;;;;;;;;;22.93;48.16;102235.50;5047564;28;19924;-72
2023/05/23 11:37:22;;;;;;;;;;;;;;;22.94;48.17;102232.66;5036379;28;20016;-72
2023/05/23 11:39:47;;;;;;;;;;;;;;;22.95;47.99;102234.34;5053348;28;19913;-72
2023/05/23 11:42:13;;;;;;;;;;;;;;;22.97;48.04;102226.03;5052430;28;19920;-72
2023/05/23 11:44:38;;;;;;;;;;;;;;;22.99;47.91;102223.19;5048774;28;19913;-72
2023/05/23 11:47:05;;;;;;;;;;;;;;;23.00;48.09;102242.00;5054773;28;19997;-72
2023/05/23 11:49:31;;;;;;;;;;;;;;;23.01;47.87;102231.97;5035767;28;19920;-72
2023/05/23 11:52:00;;;;;;;;;;;;;;;23.01;48.02;102240.97;5036087;28;19925;-72
2023/05/23 11:54:25;;;;;;;;;;;;;;;23.01;48.03;102235.53;5028122;28;19921;-72
2023/05/23 11:56:50;;;;;;;;;;;;;;;23.02;47.94;102237.22;5045349;28;19963;-72
2023/05/23 11:59:16;;;;;;;;;;;;;;;23.02;48.02;102239.09;5043909;28;19917;-72
2023/05/23 12:01:41;;;;;;;;;;;;;;;23.03;47.88;102254.38;5052936;28;19924;-72
2023/05/23 12:04:11;;;;;;;;;;;;;;;23.03;47.86;102243.53;5023771;28;20020;-72
2023/05/23 12:06:40;;;;;;;;;;;;;;;23.03;47.92;102255.22;5045781;28;19928;-72
2023/05/23 12:09:06;;;;;;;;;;;;;;;23.03;48.02;102252.53;5035943;28;20306;-72
2023/05/23 12:11:31;;;;;;;;;;;;;;;23.05;47.96;102246.91;5052386;28;19913;-72
2023/05/23 12:13:58;;;;;;;;;;;;;;;23.05;48.14;102255.91;5039650;28;19931;-72
2023/05/23 12:16:24;;;;;;;;;;;;;;;23.06;48.06;102245.91;5054840;28;19931;-72
2023/05/23 12:18:49;;;;;;;;;;;;;;;23.08;47.92;102242.03;5051483;28;19948;-71
2023/05/23 12:21:14;;;;;;;;;;;;;;;23.09;47.74;102246.44;5039310;28;19978;-71
2023/05/23 12:23:39;;;;;;;;;;;;;;;23.10;47.78;102252.69;5032493;28;19928;-71
2023/05/23 12:26:09;;;;;;;;;;;;;;;23.10;47.75;102249.97;5040920;28;20003;-71
2023/05/23 12:28:34;;;;;;;;;;;;;;;23.09;48.03;102257.28;5045227;28;19967;-71
2023/05/23 12:31:07;;;;;;;;;;;;;;;23.10;47.85;102256.25;5041261;28;19917;-72